createdAt,value
2023-02-03T00:00:08.024Z,15.40
2023-02-03T00:02:42.205Z,16.50
2023-02-03T00:05:10.022Z,22.27
2023-02-03T00:07:39.583Z,16.73
2023-02-03T00:10:08.084Z,14.00
2023-02-03T00:12:35.882Z,13.83
2023-02-03T00:15:04.677Z,13.30
2023-02-03T00:17:32.287Z,18.17
2023-02-03T00:19:59.920Z,16.60
2023-02-03T00:22:27.510Z,16.67
2023-02-03T00:24:55.201Z,12.47
2023-02-03T00:27:22.883Z,9.77
2023-02-03T00:29:50.567Z,9.57
2023-02-03T00:32:18.344Z,16.73
2023-02-03T00:34:46.231Z,15.17
2023-02-03T00:37:14.186Z,14.87
2023-02-03T00:39:42.647Z,17.03
2023-02-03T00:42:10.301Z,16.30
2023-02-03T00:44:37.888Z,13.47
2023-02-03T00:47:05.468Z,9.97
2023-02-03T00:49:33.674Z,9.50
2023-02-03T00:52:01.345Z,18.03
2023-02-03T00:54:29.008Z,12.13
2023-02-03T00:56:56.596Z,7.50
2023-02-03T00:59:24.351Z,10.60
2023-02-03T01:01:52.222Z,9.33
2023-02-03T01:04:19.927Z,9.70
2023-02-03T01:06:47.595Z,9.00
2023-02-03T01:09:15.182Z,8.07
2023-02-03T01:11:42.803Z,6.20
2023-02-03T01:14:10.545Z,7.03
2023-02-03T01:16:38.573Z,5.33
2023-02-03T01:19:06.350Z,4.93
2023-02-03T01:21:34.178Z,5.33
2023-02-03T01:24:02.968Z,7.63
2023-02-03T01:26:31.870Z,7.43
2023-02-03T01:29:00.420Z,5.03
2023-02-03T01:31:33.515Z,3.03
2023-02-03T01:34:01.631Z,5.23
2023-02-03T01:36:32.069Z,8.10
2023-02-03T01:39:00.161Z,6.63
2023-02-03T01:41:31.770Z,4.77
2023-02-03T01:44:01.617Z,4.10
2023-02-03T01:46:43.064Z,4.03
2023-02-03T01:49:29.959Z,3.73
2023-02-03T01:51:57.977Z,7.70
2023-02-03T01:54:31.614Z,5.30
2023-02-03T01:57:04.344Z,4.97
2023-02-03T01:59:34.623Z,4.70
2023-02-03T02:02:05.204Z,5.73
2023-02-03T02:04:58.989Z,4.73
2023-02-03T02:07:26.824Z,3.47
2023-02-03T02:09:56.496Z,2.83
2023-02-03T02:12:24.139Z,1.23
2023-02-03T02:14:51.991Z,1.83
2023-02-03T02:17:40.388Z,3.47
2023-02-03T02:20:32.893Z,2.93
2023-02-03T02:23:21.959Z,2.73
2023-02-03T02:26:14.874Z,3.60
2023-02-03T02:28:58.078Z,2.97
2023-02-03T02:31:50.918Z,1.53
2023-02-03T02:34:47.948Z,2.70
2023-02-03T02:37:57.444Z,1.70
2023-02-03T02:41:05.308Z,3.03
2023-02-03T02:43:43.155Z,4.60
2023-02-03T02:46:24.383Z,2.07
2023-02-03T02:49:04.775Z,1.77
2023-02-03T02:51:33.601Z,2.07
2023-02-03T02:54:07.238Z,2.80
2023-02-03T02:56:39.235Z,4.20
2023-02-03T02:59:07.971Z,5.53
2023-02-03T03:01:35.903Z,3.90
2023-02-03T03:04:07.277Z,5.87
2023-02-03T03:06:45.125Z,6.53
2023-02-03T03:09:20.715Z,8.10
2023-02-03T03:11:59.870Z,10.20
2023-02-03T03:14:31.652Z,8.37
2023-02-03T03:17:09.200Z,12.63
2023-02-03T03:19:42.952Z,12.60
2023-02-03T03:22:16.036Z,12.33
2023-02-03T03:24:58.449Z,16.57
2023-02-03T03:27:38.087Z,15.70
2023-02-03T03:30:14.600Z,16.00
2023-02-03T03:32:42.332Z,18.00
2023-02-03T03:35:09.952Z,27.20
2023-02-03T03:38:08.889Z,22.33
2023-02-03T03:40:44.791Z,19.37
2023-02-03T03:43:20.602Z,19.30
2023-02-03T03:46:08.312Z,17.30
2023-02-03T03:48:53.224Z,22.67
2023-02-03T03:51:34.104Z,18.67
2023-02-03T03:54:07.602Z,21.30
2023-02-03T03:57:19.039Z,21.97
2023-02-03T03:59:49.478Z,21.40
2023-02-03T04:02:19.807Z,24.50
2023-02-03T04:04:49.764Z,25.50
2023-02-03T04:07:17.474Z,23.67
2023-02-03T04:09:45.082Z,26.73
2023-02-03T04:12:23.911Z,24.47
2023-02-03T04:14:51.510Z,23.30
2023-02-03T04:17:20.271Z,27.43
2023-02-03T04:19:48.975Z,24.50
2023-02-03T04:22:16.628Z,25.53
2023-02-03T04:24:44.321Z,23.90
2023-02-03T04:27:11.907Z,28.53
2023-02-03T04:29:39.536Z,30.67
2023-02-03T04:32:07.227Z,24.73
2023-02-03T04:34:35.060Z,28.07
2023-02-03T04:37:02.782Z,26.93
2023-02-03T04:39:30.364Z,29.60
2023-02-03T04:41:57.948Z,32.93
2023-02-03T04:44:25.592Z,30.60
2023-02-03T04:46:53.435Z,31.40
2023-02-03T04:49:22.046Z,34.03
2023-02-03T04:51:50.041Z,32.43
2023-02-03T04:54:17.836Z,36.63
2023-02-03T04:56:45.459Z,35.43
2023-02-03T04:59:13.144Z,33.57
2023-02-03T05:01:40.715Z,38.50
2023-02-03T05:04:08.422Z,37.70
2023-02-03T05:06:36.070Z,32.33
2023-02-03T05:09:04.193Z,39.10
2023-02-03T05:11:32.168Z,29.57
2023-02-03T05:13:59.812Z,31.70
2023-02-03T05:16:27.445Z,32.47
2023-02-03T05:18:55.369Z,30.40
2023-02-03T05:21:22.969Z,31.90
2023-02-03T05:23:50.587Z,36.17
2023-02-03T05:26:30.793Z,34.97
2023-02-03T05:28:58.758Z,36.90
2023-02-03T05:31:26.619Z,28.40
2023-02-03T05:33:54.292Z,31.60
2023-02-03T05:36:21.836Z,35.33
2023-02-03T05:38:49.825Z,33.60
2023-02-03T05:41:36.109Z,31.47
2023-02-03T05:44:03.890Z,35.93
2023-02-03T05:46:31.463Z,32.77
2023-02-03T05:48:59.194Z,24.33
2023-02-03T05:51:26.798Z,20.83
2023-02-03T05:53:54.467Z,25.70
2023-02-03T05:56:22.313Z,20.70
2023-02-03T05:58:53.054Z,23.90
2023-02-03T06:01:20.746Z,23.90
2023-02-03T06:03:48.886Z,20.03
2023-02-03T06:06:17.268Z,24.67
2023-02-03T06:08:45.021Z,24.27
2023-02-03T06:11:12.727Z,24.67
2023-02-03T06:13:40.342Z,20.43
2023-02-03T06:16:08.403Z,21.57
2023-02-03T06:18:35.996Z,22.83
2023-02-03T06:21:03.716Z,28.63
2023-02-03T06:23:31.393Z,21.50
2023-02-03T06:26:00.444Z,25.10
2023-02-03T06:28:28.172Z,27.50
2023-02-03T06:30:55.873Z,20.80
2023-02-03T06:33:23.765Z,22.90
2023-02-03T06:35:51.383Z,24.63
2023-02-03T06:38:19.064Z,22.43
2023-02-03T06:40:47.878Z,15.17
2023-02-03T06:43:16.051Z,19.60
2023-02-03T06:45:49.335Z,14.77
2023-02-03T06:48:17.012Z,16.90
2023-02-03T06:50:48.236Z,16.07
2023-02-03T06:53:16.329Z,17.70
2023-02-03T06:55:43.878Z,12.47
2023-02-03T06:58:11.713Z,18.00
2023-02-03T07:00:39.324Z,14.20
2023-02-03T07:03:07.184Z,20.00
2023-02-03T07:05:36.786Z,16.07
2023-02-03T07:08:04.537Z,18.33
2023-02-03T07:10:32.108Z,16.53
2023-02-03T07:13:07.274Z,20.77
2023-02-03T07:15:35.544Z,20.43
2023-02-03T07:18:03.218Z,17.57
2023-02-03T07:20:32.468Z,24.97
2023-02-03T07:23:00.119Z,22.67
2023-02-03T07:25:28.035Z,36.13
2023-02-03T07:27:55.818Z,35.33
2023-02-03T07:30:24.033Z,36.87
2023-02-03T07:32:53.469Z,22.87
2023-02-03T07:35:21.867Z,25.67
2023-02-03T07:37:49.525Z,25.57
2023-02-03T07:40:18.945Z,36.27
2023-02-03T07:42:49.107Z,25.17
2023-02-03T07:45:18.614Z,26.37
2023-02-03T07:47:46.251Z,24.83
2023-02-03T07:50:14.026Z,31.23
2023-02-03T07:52:41.820Z,24.07
2023-02-03T07:55:09.908Z,23.67
2023-02-03T07:57:37.971Z,19.73
2023-02-03T08:00:06.467Z,25.43
2023-02-03T08:02:41.515Z,14.97
2023-02-03T08:05:11.024Z,24.67
2023-02-03T08:07:39.017Z,16.77
2023-02-03T08:10:08.513Z,16.47
2023-02-03T08:12:36.191Z,12.17
2023-02-03T08:15:04.863Z,13.07
2023-02-03T08:17:35.732Z,11.20
2023-02-03T08:20:03.994Z,12.07
2023-02-03T08:22:31.594Z,8.83
2023-02-03T08:24:59.296Z,17.00
2023-02-03T08:27:27.112Z,13.83
2023-02-03T08:29:54.747Z,8.97
2023-02-03T08:32:22.856Z,9.67
2023-02-03T08:34:51.413Z,15.10
2023-02-03T08:37:24.278Z,14.67
2023-02-03T08:39:52.733Z,12.33
2023-02-03T08:42:20.872Z,13.87
2023-02-03T08:44:49.256Z,18.60
2023-02-03T08:47:18.718Z,19.07
2023-02-03T08:49:46.508Z,15.83
2023-02-03T08:52:15.124Z,14.40
2023-02-03T08:54:43.923Z,13.60
2023-02-03T08:57:11.626Z,16.60
2023-02-03T08:59:41.536Z,14.87
2023-02-03T09:02:16.030Z,11.77
2023-02-03T09:04:44.863Z,12.60
2023-02-03T09:07:13.439Z,7.90
2023-02-03T09:09:41.148Z,10.00
2023-02-03T09:12:11.591Z,7.40
2023-02-03T09:14:39.611Z,6.87
2023-02-03T09:17:10.375Z,11.27
2023-02-03T09:19:38.236Z,6.37
2023-02-03T09:22:06.192Z,5.77
2023-02-03T09:24:34.130Z,8.43
2023-02-03T09:27:01.801Z,6.10
2023-02-03T09:29:29.594Z,5.50
2023-02-03T09:31:57.385Z,5.80
2023-02-03T09:34:25.065Z,4.77
2023-02-03T09:36:52.713Z,5.73
2023-02-03T09:39:20.590Z,3.00
2023-02-03T09:42:28.953Z,4.30
2023-02-03T09:45:21.094Z,5.80
2023-02-03T09:47:54.077Z,4.40
2023-02-03T09:50:27.275Z,3.53
2023-02-03T09:52:57.554Z,5.60
2023-02-03T09:55:43.110Z,4.00
2023-02-03T09:58:13.421Z,5.20
2023-02-03T10:00:50.937Z,5.00
2023-02-03T10:04:09.771Z,7.67
2023-02-03T10:06:45.908Z,8.13
2023-02-03T10:09:39.922Z,4.63
2023-02-03T10:12:29.321Z,7.90
2023-02-03T10:15:42.908Z,7.27
2023-02-03T10:18:17.420Z,7.00
2023-02-03T10:20:49.841Z,5.43
2023-02-03T10:23:26.809Z,9.60
2023-02-03T10:25:57.858Z,15.10
2023-02-03T10:28:31.584Z,8.70
2023-02-03T10:31:04.476Z,7.63
2023-02-03T10:33:34.405Z,8.17
2023-02-03T10:36:14.162Z,9.37
2023-02-03T10:38:59.514Z,8.73
2023-02-03T10:41:30.276Z,10.47
2023-02-03T10:44:02.209Z,7.40
2023-02-03T10:46:35.209Z,7.43
2023-02-03T10:49:03.293Z,3.33
2023-02-03T10:51:53.161Z,7.00
2023-02-03T10:54:31.941Z,4.13
2023-02-03T10:57:28.333Z,6.63
2023-02-03T11:00:32.342Z,3.77
2023-02-03T11:03:25.273Z,2.60
2023-02-03T11:06:07.585Z,6.10
2023-02-03T11:08:40.631Z,9.67
2023-02-03T11:11:14.291Z,8.13
2023-02-03T11:13:42.022Z,12.20
2023-02-03T11:16:24.570Z,11.70
2023-02-03T11:19:03.831Z,12.07
2023-02-03T11:21:37.421Z,16.70
2023-02-03T11:24:28.469Z,19.97
2023-02-03T11:27:10.245Z,15.40
2023-02-03T11:29:43.009Z,12.53
2023-02-03T11:32:31.291Z,19.13
2023-02-03T11:35:13.729Z,29.13
2023-02-03T11:37:45.276Z,21.80
2023-02-03T11:40:23.811Z,17.93
2023-02-03T11:42:51.312Z,21.93
2023-02-03T11:45:35.718Z,26.80
2023-02-03T11:48:36.728Z,20.07
2023-02-03T11:51:47.129Z,23.60
2023-02-03T11:54:32.577Z,29.17
2023-02-03T11:57:45.971Z,28.23
2023-02-03T12:00:27.282Z,23.90
2023-02-03T12:03:51.250Z,31.87
2023-02-03T12:06:36.953Z,18.07
2023-02-03T12:09:46.289Z,26.57
2023-02-03T12:12:48.203Z,29.40
2023-02-03T12:15:40.384Z,23.90
2023-02-03T12:18:41.853Z,26.97
2023-02-03T12:21:44.255Z,24.87
2023-02-03T12:24:53.760Z,16.30
2023-02-03T12:27:52.349Z,26.23
2023-02-03T12:30:28.076Z,30.03
2023-02-03T12:33:22.912Z,31.27
2023-02-03T12:35:58.698Z,25.37
2023-02-03T12:39:06.399Z,33.10
2023-02-03T12:41:50.987Z,18.83
2023-02-03T12:44:29.491Z,30.47
2023-02-03T12:47:13.238Z,10.37
2023-02-03T12:53:33.836Z,23.27
